sensor_id;sensor_type;location;lat;lon;timestamp;temperature;humidity
7194;DHT22;3638;48.820;9.244;2022-12-18T00:02:22;-6.90;99.90
7194;DHT22;3638;48.820;9.244;2022-12-18T00:04:50;-7.00;99.90
7194;DHT22;3638;48.820;9.244;2022-12-18T00:07:17;-7.00;99.90
7194;DHT22;3638;48.820;9.244;2022-12-18T00:09:44;-7.00;99.90
7194;DHT22;3638;48.820;9.244;2022-12-18T00:12:12;-7.00;99.90
7194;DHT22;3638;48.820;9.244;2022-12-18T00:14:38;-7.00;99.90
7194;DHT22;3638;48.820;9.244;2022-12-18T00:17:05;-4.20;99.90
7194;DHT22;3638;48.820;9.244;2022-12-18T00:19:32;-6.90;99.90
7194;DHT22;3638;48.820;9.244;2022-12-18T00:22:00;-6.80;99.90
7194;DHT22;3638;48.820;9.244;2022-12-18T00:24:27;-6.80;99.90
7194;DHT22;3638;48.820;9.244;2022-12-18T00:26:54;-6.80;99.90
7194;DHT22;3638;48.820;9.244;2022-12-18T00:29:21;-6.90;99.90
7194;DHT22;3638;48.820;9.244;2022-12-18T00:31:48;-7.00;99.90
7194;DHT22;3638;48.820;9.244;2022-12-18T00:34:15;-7.10;99.90
7194;DHT22;3638;48.820;9.244;2022-12-18T00:36:42;-7.10;99.90
7194;DHT22;3638;48.820;9.244;2022-12-18T00:39:11;-7.10;99.90
7194;DHT22;3638;48.820;9.244;2022-12-18T00:41:38;-7.10;99.90
7194;DHT22;3638;48.820;9.244;2022-12-18T00:44:23;-7.20;99.90
7194;DHT22;3638;48.820;9.244;2022-12-18T00:46:49;-7.20;99.90
7194;DHT22;3638;48.820;9.244;2022-12-18T00:49:18;-7.30;99.90
7194;DHT22;3638;48.820;9.244;2022-12-18T00:51:46;-7.20;99.90
7194;DHT22;3638;48.820;9.244;2022-12-18T00:54:14;-7.20;99.90
7194;DHT22;3638;48.820;9.244;2022-12-18T00:56:42;-7.20;99.90
7194;DHT22;3638;48.820;9.244;2022-12-18T00:59:09;-7.20;99.90
7194;DHT22;3638;48.820;9.244;2022-12-18T01:01:36;-7.20;99.90
7194;DHT22;3638;48.820;9.244;2022-12-18T01:04:03;-7.30;99.90
7194;DHT22;3638;48.820;9.244;2022-12-18T01:06:30;-7.20;99.90
7194;DHT22;3638;48.820;9.244;2022-12-18T01:08:58;-7.20;99.90
7194;DHT22;3638;48.820;9.244;2022-12-18T01:11:26;-7.20;99.90
7194;DHT22;3638;48.820;9.244;2022-12-18T01:13:54;-7.30;99.90
7194;DHT22;3638;48.820;9.244;2022-12-18T01:16:22;-7.20;99.90
7194;DHT22;3638;48.820;9.244;2022-12-18T01:18:52;-7.20;99.90
7194;DHT22;3638;48.820;9.244;2022-12-18T01:21:21;-7.20;99.90
7194;DHT22;3638;48.820;9.244;2022-12-18T01:23:52;-7.20;99.90
7194;DHT22;3638;48.820;9.244;2022-12-18T01:26:19;-7.10;99.90
7194;DHT22;3638;48.820;9.244;2022-12-18T01:28:48;-7.10;99.90
7194;DHT22;3638;48.820;9.244;2022-12-18T01:31:18;-7.20;99.90
7194;DHT22;3638;48.820;9.244;2022-12-18T01:33:46;-7.10;99.90
7194;DHT22;3638;48.820;9.244;2022-12-18T01:36:16;-7.10;99.90
7194;DHT22;3638;48.820;9.244;2022-12-18T01:38:45;-7.10;99.90
7194;DHT22;3638;48.820;9.244;2022-12-18T01:41:12;-7.20;99.90
7194;DHT22;3638;48.820;9.244;2022-12-18T01:43:42;-7.20;99.90
7194;DHT22;3638;48.820;9.244;2022-12-18T01:46:15;-7.10;99.90
7194;DHT22;3638;48.820;9.244;2022-12-18T01:48:47;-7.20;99.90
7194;DHT22;3638;48.820;9.244;2022-12-18T01:51:16;-7.20;99.90
7194;DHT22;3638;48.820;9.244;2022-12-18T01:53:44;-7.30;99.90
7194;DHT22;3638;48.820;9.244;2022-12-18T01:56:13;-7.30;99.90
7194;DHT22;3638;48.820;9.244;2022-12-18T01:58:52;-7.40;99.90
7194;DHT22;3638;48.820;9.244;2022-12-18T02:01:24;-7.30;99.90
7194;DHT22;3638;48.820;9.244;2022-12-18T02:03:52;-7.30;99.90
7194;DHT22;3638;48.820;9.244;2022-12-18T02:06:21;-7.40;99.90
7194;DHT22;3638;48.820;9.244;2022-12-18T02:09:00;-7.30;99.90
7194;DHT22;3638;48.820;9.244;2022-12-18T02:11:40;-7.30;99.90
7194;DHT22;3638;48.820;9.244;2022-12-18T02:14:18;-7.20;99.90
7194;DHT22;3638;48.820;9.244;2022-12-18T02:16:54;-7.20;99.90
7194;DHT22;3638;48.820;9.244;2022-12-18T02:19:44;-7.30;99.90
7194;DHT22;3638;48.820;9.244;2022-12-18T02:22:26;-7.20;99.90
7194;DHT22;3638;48.820;9.244;2022-12-18T02:25:05;-7.20;99.90
7194;DHT22;3638;48.820;9.244;2022-12-18T02:27:45;-7.20;99.90
7194;DHT22;3638;48.820;9.244;2022-12-18T02:30:14;-7.20;99.90
7194;DHT22;3638;48.820;9.244;2022-12-18T02:32:44;-7.20;99.90
7194;DHT22;3638;48.820;9.244;2022-12-18T02:35:15;-7.10;99.90
7194;DHT22;3638;48.820;9.244;2022-12-18T02:37:45;-7.10;99.90
7194;DHT22;3638;48.820;9.244;2022-12-18T02:40:14;-7.10;99.90
7194;DHT22;3638;48.820;9.244;2022-12-18T02:42:44;-7.00;99.90
7194;DHT22;3638;48.820;9.244;2022-12-18T02:45:10;-7.00;99.90
7194;DHT22;3638;48.820;9.244;2022-12-18T02:47:40;-7.00;99.90
7194;DHT22;3638;48.820;9.244;2022-12-18T02:50:15;-6.90;99.90
7194;DHT22;3638;48.820;9.244;2022-12-18T02:52:54;-6.90;99.90
7194;DHT22;3638;48.820;9.244;2022-12-18T02:55:32;-6.80;99.90
7194;DHT22;3638;48.820;9.244;2022-12-18T02:58:11;-6.90;99.90
7194;DHT22;3638;48.820;9.244;2022-12-18T03:00:47;-6.80;99.90
7194;DHT22;3638;48.820;9.244;2022-12-18T03:03:21;-6.90;99.90
7194;DHT22;3638;48.820;9.244;2022-12-18T03:05:54;-6.80;99.90
7194;DHT22;3638;48.820;9.244;2022-12-18T03:08:27;-6.80;99.90
7194;DHT22;3638;48.820;9.244;2022-12-18T03:10:58;-6.80;99.90
7194;DHT22;3638;48.820;9.244;2022-12-18T03:13:32;-6.90;99.90
7194;DHT22;3638;48.820;9.244;2022-12-18T03:16:02;-6.80;99.90
7194;DHT22;3638;48.820;9.244;2022-12-18T03:18:36;-6.90;99.90
7194;DHT22;3638;48.820;9.244;2022-12-18T03:21:06;-6.80;99.90
7194;DHT22;3638;48.820;9.244;2022-12-18T03:23:38;-6.80;99.90
7194;DHT22;3638;48.820;9.244;2022-12-18T03:26:14;-6.90;99.90
7194;DHT22;3638;48.820;9.244;2022-12-18T03:28:46;-6.80;99.90
7194;DHT22;3638;48.820;9.244;2022-12-18T03:31:20;-6.80;99.90
7194;DHT22;3638;48.820;9.244;2022-12-18T03:33:52;-6.80;99.90
7194;DHT22;3638;48.820;9.244;2022-12-18T03:36:20;-6.70;99.90
7194;DHT22;3638;48.820;9.244;2022-12-18T03:38:47;-6.70;99.90
7194;DHT22;3638;48.820;9.244;2022-12-18T03:41:18;-6.70;99.90
7194;DHT22;3638;48.820;9.244;2022-12-18T03:43:54;-4.00;99.90
7194;DHT22;3638;48.820;9.244;2022-12-18T03:46:29;-6.60;99.90
7194;DHT22;3638;48.820;9.244;2022-12-18T03:49:01;-6.60;99.90
7194;DHT22;3638;48.820;9.244;2022-12-18T03:51:37;-6.70;99.90
7194;DHT22;3638;48.820;9.244;2022-12-18T03:54:08;-6.70;99.90
7194;DHT22;3638;48.820;9.244;2022-12-18T03:56:40;-6.70;99.90
7194;DHT22;3638;48.820;9.244;2022-12-18T03:59:11;-6.70;99.90
7194;DHT22;3638;48.820;9.244;2022-12-18T04:01:42;-6.70;99.90
7194;DHT22;3638;48.820;9.244;2022-12-18T04:04:13;-6.70;99.90
7194;DHT22;3638;48.820;9.244;2022-12-18T04:06:41;-6.70;99.90
7194;DHT22;3638;48.820;9.244;2022-12-18T04:09:10;-6.80;99.90
7194;DHT22;3638;48.820;9.244;2022-12-18T04:11:36;-6.70;99.90
7194;DHT22;3638;48.820;9.244;2022-12-18T04:14:03;-6.60;99.90
7194;DHT22;3638;48.820;9.244;2022-12-18T04:16:32;-6.70;99.90
7194;DHT22;3638;48.820;9.244;2022-12-18T04:18:59;-6.80;99.90
7194;DHT22;3638;48.820;9.244;2022-12-18T04:21:26;-6.80;99.90
7194;DHT22;3638;48.820;9.244;2022-12-18T04:23:53;-6.90;99.90
7194;DHT22;3638;48.820;9.244;2022-12-18T04:26:20;-7.00;99.90
7194;DHT22;3638;48.820;9.244;2022-12-18T04:28:47;-7.10;99.90
7194;DHT22;3638;48.820;9.244;2022-12-18T04:33:43;-7.40;99.90
7194;DHT22;3638;48.820;9.244;2022-12-18T04:36:10;-7.50;99.90
7194;DHT22;3638;48.820;9.244;2022-12-18T04:38:37;-7.50;99.90
7194;DHT22;3638;48.820;9.244;2022-12-18T04:41:04;-7.50;99.90
7194;DHT22;3638;48.820;9.244;2022-12-18T04:43:31;-7.60;99.90
7194;DHT22;3638;48.820;9.244;2022-12-18T04:46:03;-7.60;99.90
7194;DHT22;3638;48.820;9.244;2022-12-18T04:48:30;-7.60;99.90
7194;DHT22;3638;48.820;9.244;2022-12-18T04:50:59;-7.60;99.90
7194;DHT22;3638;48.820;9.244;2022-12-18T04:53:26;-7.60;99.90
7194;DHT22;3638;48.820;9.244;2022-12-18T04:58:30;-7.70;99.90
7194;DHT22;3638;48.820;9.244;2022-12-18T05:00:57;-7.60;99.90
7194;DHT22;3638;48.820;9.244;2022-12-18T05:03:25;-7.60;99.90
7194;DHT22;3638;48.820;9.244;2022-12-18T05:05:52;-7.70;99.90
7194;DHT22;3638;48.820;9.244;2022-12-18T05:08:20;-7.50;99.90
7194;DHT22;3638;48.820;9.244;2022-12-18T05:10:47;-7.50;99.90
7194;DHT22;3638;48.820;9.244;2022-12-18T05:13:14;-7.60;99.90
7194;DHT22;3638;48.820;9.244;2022-12-18T05:15:41;-7.60;99.90
7194;DHT22;3638;48.820;9.244;2022-12-18T05:18:08;-7.50;99.90
7194;DHT22;3638;48.820;9.244;2022-12-18T05:20:35;-7.60;99.90
7194;DHT22;3638;48.820;9.244;2022-12-18T05:23:02;-7.80;99.90
7194;DHT22;3638;48.820;9.244;2022-12-18T05:25:30;-7.90;99.90
7194;DHT22;3638;48.820;9.244;2022-12-18T05:30:25;-7.90;99.90
7194;DHT22;3638;48.820;9.244;2022-12-18T05:32:53;-5.90;99.90
7194;DHT22;3638;48.820;9.244;2022-12-18T05:35:20;-7.90;99.90
7194;DHT22;3638;48.820;9.244;2022-12-18T05:37:46;-8.00;99.90
7194;DHT22;3638;48.820;9.244;2022-12-18T05:40:13;-8.10;99.90
7194;DHT22;3638;48.820;9.244;2022-12-18T05:42:42;-8.10;99.90
7194;DHT22;3638;48.820;9.244;2022-12-18T05:45:09;-8.10;99.90
7194;DHT22;3638;48.820;9.244;2022-12-18T05:47:36;-8.20;99.90
7194;DHT22;3638;48.820;9.244;2022-12-18T05:50:05;-8.20;99.90
7194;DHT22;3638;48.820;9.244;2022-12-18T05:52:33;-8.30;99.90
7194;DHT22;3638;48.820;9.244;2022-12-18T05:55:00;-8.20;99.90
7194;DHT22;3638;48.820;9.244;2022-12-18T05:57:27;-8.10;99.90
7194;DHT22;3638;48.820;9.244;2022-12-18T05:59:55;-8.10;99.90
7194;DHT22;3638;48.820;9.244;2022-12-18T06:02:22;-8.20;99.90
7194;DHT22;3638;48.820;9.244;2022-12-18T06:04:49;-8.30;99.90
7194;DHT22;3638;48.820;9.244;2022-12-18T06:07:16;-8.30;99.90
7194;DHT22;3638;48.820;9.244;2022-12-18T06:09:43;-8.30;99.90
7194;DHT22;3638;48.820;9.244;2022-12-18T06:12:10;-8.40;99.90
7194;DHT22;3638;48.820;9.244;2022-12-18T06:14:37;-8.40;99.90
7194;DHT22;3638;48.820;9.244;2022-12-18T06:17:05;-8.40;99.90
7194;DHT22;3638;48.820;9.244;2022-12-18T06:19:32;-8.40;99.90
7194;DHT22;3638;48.820;9.244;2022-12-18T06:21:59;-8.30;99.90
7194;DHT22;3638;48.820;9.244;2022-12-18T06:24:26;-8.30;99.90
7194;DHT22;3638;48.820;9.244;2022-12-18T06:26:53;-8.30;99.90
7194;DHT22;3638;48.820;9.244;2022-12-18T06:29:20;-8.30;99.90
7194;DHT22;3638;48.820;9.244;2022-12-18T06:31:47;-8.40;99.90
7194;DHT22;3638;48.820;9.244;2022-12-18T06:34:16;-8.40;99.90
7194;DHT22;3638;48.820;9.244;2022-12-18T06:36:42;-8.30;99.90
7194;DHT22;3638;48.820;9.244;2022-12-18T06:39:09;-8.30;99.90
7194;DHT22;3638;48.820;9.244;2022-12-18T06:44:03;-8.60;99.90
7194;DHT22;3638;48.820;9.244;2022-12-18T06:46:31;-8.70;99.90
7194;DHT22;3638;48.820;9.244;2022-12-18T06:48:58;-8.70;99.90
7194;DHT22;3638;48.820;9.244;2022-12-18T06:51:26;-8.70;99.90
7194;DHT22;3638;48.820;9.244;2022-12-18T06:53:53;-8.60;99.90
7194;DHT22;3638;48.820;9.244;2022-12-18T06:56:20;-8.60;99.90
7194;DHT22;3638;48.820;9.244;2022-12-18T06:58:47;-8.60;99.90
7194;DHT22;3638;48.820;9.244;2022-12-18T07:01:14;-8.80;99.90
7194;DHT22;3638;48.820;9.244;2022-12-18T07:03:41;-8.70;99.90
7194;DHT22;3638;48.820;9.244;2022-12-18T07:06:13;-8.70;99.90
7194;DHT22;3638;48.820;9.244;2022-12-18T07:08:44;-8.70;99.90
7194;DHT22;3638;48.820;9.244;2022-12-18T07:11:11;-8.70;99.90
7194;DHT22;3638;48.820;9.244;2022-12-18T07:13:38;-8.70;99.90
7194;DHT22;3638;48.820;9.244;2022-12-18T07:16:07;-8.80;99.90
7194;DHT22;3638;48.820;9.244;2022-12-18T07:18:35;-8.70;99.90
7194;DHT22;3638;48.820;9.244;2022-12-18T07:21:03;-8.70;99.90
7194;DHT22;3638;48.820;9.244;2022-12-18T07:23:32;-8.70;99.90
7194;DHT22;3638;48.820;9.244;2022-12-18T07:26:02;-8.70;99.90
7194;DHT22;3638;48.820;9.244;2022-12-18T07:28:30;-8.70;99.90
7194;DHT22;3638;48.820;9.244;2022-12-18T07:30:58;-8.60;99.90
7194;DHT22;3638;48.820;9.244;2022-12-18T07:33:28;-8.60;99.90
7194;DHT22;3638;48.820;9.244;2022-12-18T07:35:55;-8.60;99.90
7194;DHT22;3638;48.820;9.244;2022-12-18T07:38:22;-8.70;99.90
7194;DHT22;3638;48.820;9.244;2022-12-18T07:40:49;-8.60;99.90
7194;DHT22;3638;48.820;9.244;2022-12-18T07:43:17;-8.60;99.90
7194;DHT22;3638;48.820;9.244;2022-12-18T07:45:44;-8.50;99.90
7194;DHT22;3638;48.820;9.244;2022-12-18T07:48:11;-8.50;99.90
7194;DHT22;3638;48.820;9.244;2022-12-18T07:50:38;-8.40;99.90
7194;DHT22;3638;48.820;9.244;2022-12-18T07:53:05;-8.30;99.90
7194;DHT22;3638;48.820;9.244;2022-12-18T07:55:32;-8.30;99.90
7194;DHT22;3638;48.820;9.244;2022-12-18T07:58:01;-8.30;99.90
7194;DHT22;3638;48.820;9.244;2022-12-18T08:00:30;-8.20;99.90
7194;DHT22;3638;48.820;9.244;2022-12-18T08:02:57;-8.00;99.90
7194;DHT22;3638;48.820;9.244;2022-12-18T08:05:25;-8.00;99.90
7194;DHT22;3638;48.820;9.244;2022-12-18T08:07:52;-7.90;99.90
7194;DHT22;3638;48.820;9.244;2022-12-18T08:10:19;-7.80;99.90
7194;DHT22;3638;48.820;9.244;2022-12-18T08:12:49;-7.80;99.90
7194;DHT22;3638;48.820;9.244;2022-12-18T08:15:17;-7.80;99.90
7194;DHT22;3638;48.820;9.244;2022-12-18T08:17:45;-7.80;99.90
7194;DHT22;3638;48.820;9.244;2022-12-18T08:20:12;-7.80;99.90
7194;DHT22;3638;48.820;9.244;2022-12-18T08:22:40;-7.80;99.90
7194;DHT22;3638;48.820;9.244;2022-12-18T08:27:36;-7.60;99.90
7194;DHT22;3638;48.820;9.244;2022-12-18T08:30:04;-7.50;99.90
7194;DHT22;3638;48.820;9.244;2022-12-18T08:32:32;-7.40;99.90
7194;DHT22;3638;48.820;9.244;2022-12-18T08:35:00;-7.40;99.90
7194;DHT22;3638;48.820;9.244;2022-12-18T08:37:27;-7.30;99.90
7194;DHT22;3638;48.820;9.244;2022-12-18T08:42:21;-7.00;99.90
7194;DHT22;3638;48.820;9.244;2022-12-18T08:45:07;-7.10;99.90
7194;DHT22;3638;48.820;9.244;2022-12-18T08:47:35;-7.00;99.90
7194;DHT22;3638;48.820;9.244;2022-12-18T08:52:31;-7.00;99.90
7194;DHT22;3638;48.820;9.244;2022-12-18T08:54:58;-6.90;99.90
7194;DHT22;3638;48.820;9.244;2022-12-18T08:57:26;-6.90;99.90
7194;DHT22;3638;48.820;9.244;2022-12-18T08:59:53;-6.90;99.90
7194;DHT22;3638;48.820;9.244;2022-12-18T09:02:21;-6.90;99.90
7194;DHT22;3638;48.820;9.244;2022-12-18T09:04:48;-6.90;99.90
7194;DHT22;3638;48.820;9.244;2022-12-18T09:07:16;-7.00;99.90
7194;DHT22;3638;48.820;9.244;2022-12-18T09:09:43;-6.90;99.90
7194;DHT22;3638;48.820;9.244;2022-12-18T09:12:10;-6.80;99.90
7194;DHT22;3638;48.820;9.244;2022-12-18T09:14:37;-6.50;99.90
7194;DHT22;3638;48.820;9.244;2022-12-18T09:17:04;-6.50;99.90
7194;DHT22;3638;48.820;9.244;2022-12-18T09:19:31;-6.40;99.90
7194;DHT22;3638;48.820;9.244;2022-12-18T09:21:58;-6.40;99.90
7194;DHT22;3638;48.820;9.244;2022-12-18T09:26:54;-6.10;99.90
7194;DHT22;3638;48.820;9.244;2022-12-18T09:29:21;-6.00;99.90
7194;DHT22;3638;48.820;9.244;2022-12-18T09:31:49;-5.90;99.90
7194;DHT22;3638;48.820;9.244;2022-12-18T09:34:16;-5.90;99.90
7194;DHT22;3638;48.820;9.244;2022-12-18T09:36:46;-5.90;99.90
7194;DHT22;3638;48.820;9.244;2022-12-18T09:39:13;-5.70;99.90
7194;DHT22;3638;48.820;9.244;2022-12-18T09:41:46;-5.00;99.90
7194;DHT22;3638;48.820;9.244;2022-12-18T09:44:25;-5.10;99.90
7194;DHT22;3638;48.820;9.244;2022-12-18T09:47:11;-5.10;99.90
7194;DHT22;3638;48.820;9.244;2022-12-18T09:49:42;-5.10;99.90
7194;DHT22;3638;48.820;9.244;2022-12-18T09:52:16;-5.10;99.90
7194;DHT22;3638;48.820;9.244;2022-12-18T09:54:49;-5.00;99.90
7194;DHT22;3638;48.820;9.244;2022-12-18T09:57:23;-4.90;99.90
7194;DHT22;3638;48.820;9.244;2022-12-18T09:59:54;-4.90;99.90
7194;DHT22;3638;48.820;9.244;2022-12-18T10:02:25;-4.90;99.90
7194;DHT22;3638;48.820;9.244;2022-12-18T10:05:03;-0.50;99.90
7194;DHT22;3638;48.820;9.244;2022-12-18T10:07:41;-4.80;99.90
7194;DHT22;3638;48.820;9.244;2022-12-18T10:10:30;-4.80;99.90
7194;DHT22;3638;48.820;9.244;2022-12-18T10:13:10;-4.30;99.90
7194;DHT22;3638;48.820;9.244;2022-12-18T10:15:52;-4.30;99.90
7194;DHT22;3638;48.820;9.244;2022-12-18T10:18:36;-4.30;99.90
7194;DHT22;3638;48.820;9.244;2022-12-18T10:21:13;-4.30;99.90
7194;DHT22;3638;48.820;9.244;2022-12-18T10:23:51;-4.50;99.90
7194;DHT22;3638;48.820;9.244;2022-12-18T10:26:25;-4.50;99.90
7194;DHT22;3638;48.820;9.244;2022-12-18T10:28:53;-4.40;99.90
7194;DHT22;3638;48.820;9.244;2022-12-18T10:31:24;-4.40;99.90
7194;DHT22;3638;48.820;9.244;2022-12-18T10:33:51;-0.30;99.90
7194;DHT22;3638;48.820;9.244;2022-12-18T10:36:20;-4.30;99.90
7194;DHT22;3638;48.820;9.244;2022-12-18T10:38:47;-4.30;99.90
7194;DHT22;3638;48.820;9.244;2022-12-18T10:41:25;-4.20;99.90
7194;DHT22;3638;48.820;9.244;2022-12-18T10:44:15;-4.20;99.90
7194;DHT22;3638;48.820;9.244;2022-12-18T10:46:44;-4.10;99.90
7194;DHT22;3638;48.820;9.244;2022-12-18T10:49:26;-4.00;99.90
7194;DHT22;3638;48.820;9.244;2022-12-18T10:52:05;-3.90;99.90
7194;DHT22;3638;48.820;9.244;2022-12-18T10:54:34;-3.80;99.90
7194;DHT22;3638;48.820;9.244;2022-12-18T10:57:15;-3.80;99.90
7194;DHT22;3638;48.820;9.244;2022-12-18T10:59:53;-3.70;99.90
7194;DHT22;3638;48.820;9.244;2022-12-18T11:02:27;-3.70;99.90
7194;DHT22;3638;48.820;9.244;2022-12-18T11:04:55;-3.60;99.90
7194;DHT22;3638;48.820;9.244;2022-12-18T11:07:22;-3.50;99.90
7194;DHT22;3638;48.820;9.244;2022-12-18T11:09:59;-3.40;99.90
7194;DHT22;3638;48.820;9.244;2022-12-18T11:12:28;-3.20;99.90
7194;DHT22;3638;48.820;9.244;2022-12-18T11:14:57;-0.40;99.90
7194;DHT22;3638;48.820;9.244;2022-12-18T11:17:28;-3.00;99.90
7194;DHT22;3638;48.820;9.244;2022-12-18T11:19:58;-2.90;99.90
7194;DHT22;3638;48.820;9.244;2022-12-18T11:22:27;-2.90;99.90
7194;DHT22;3638;48.820;9.244;2022-12-18T11:24:58;-2.80;99.90
7194;DHT22;3638;48.820;9.244;2022-12-18T11:27:26;-2.70;99.90
7194;DHT22;3638;48.820;9.244;2022-12-18T11:30:09;-2.50;99.90
7194;DHT22;3638;48.820;9.244;2022-12-18T11:32:41;-2.40;99.90
7194;DHT22;3638;48.820;9.244;2022-12-18T11:35:17;-2.40;99.90
7194;DHT22;3638;48.820;9.244;2022-12-18T11:37:50;-2.30;99.90
7194;DHT22;3638;48.820;9.244;2022-12-18T11:40:27;-2.00;99.90
7194;DHT22;3638;48.820;9.244;2022-12-18T11:43:02;-2.00;99.90
7194;DHT22;3638;48.820;9.244;2022-12-18T11:45:34;-2.10;99.90
7194;DHT22;3638;48.820;9.244;2022-12-18T11:48:06;-2.00;99.90
7194;DHT22;3638;48.820;9.244;2022-12-18T11:50:48;-2.10;99.90
7194;DHT22;3638;48.820;9.244;2022-12-18T11:53:17;-1.00;99.90
7194;DHT22;3638;48.820;9.244;2022-12-18T11:56:03;-2.10;99.90
7194;DHT22;3638;48.820;9.244;2022-12-18T11:58:46;-2.10;99.90
7194;DHT22;3638;48.820;9.244;2022-12-18T12:01:27;-0.60;99.90
7194;DHT22;3638;48.820;9.244;2022-12-18T12:07:07;-2.10;99.90
7194;DHT22;3638;48.820;9.244;2022-12-18T12:09:46;-2.00;99.90
7194;DHT22;3638;48.820;9.244;2022-12-18T12:12:30;-1.90;99.90
7194;DHT22;3638;48.820;9.244;2022-12-18T12:15:17;-1.70;99.90
7194;DHT22;3638;48.820;9.244;2022-12-18T12:17:55;-1.80;99.90
7194;DHT22;3638;48.820;9.244;2022-12-18T12:20:39;-1.70;99.90
7194;DHT22;3638;48.820;9.244;2022-12-18T12:23:22;-1.60;99.90
7194;DHT22;3638;48.820;9.244;2022-12-18T12:25:58;-1.60;99.90
7194;DHT22;3638;48.820;9.244;2022-12-18T12:28:42;-1.60;99.90
7194;DHT22;3638;48.820;9.244;2022-12-18T12:31:25;-1.50;99.90
7194;DHT22;3638;48.820;9.244;2022-12-18T12:34:05;-1.40;99.90
7194;DHT22;3638;48.820;9.244;2022-12-18T12:36:48;-1.40;99.90
7194;DHT22;3638;48.820;9.244;2022-12-18T12:39:27;-1.20;99.90
7194;DHT22;3638;48.820;9.244;2022-12-18T12:41:57;-1.20;99.90
7194;DHT22;3638;48.820;9.244;2022-12-18T12:44:45;-1.20;99.90
7194;DHT22;3638;48.820;9.244;2022-12-18T12:47:17;-0.50;99.90
7194;DHT22;3638;48.820;9.244;2022-12-18T12:49:49;-0.40;99.90
7194;DHT22;3638;48.820;9.244;2022-12-18T12:52:23;1.40;99.90
7194;DHT22;3638;48.820;9.244;2022-12-18T12:54:55;0.90;99.90
7194;DHT22;3638;48.820;9.244;2022-12-18T12:57:27;0.60;99.90
7194;DHT22;3638;48.820;9.244;2022-12-18T13:00:03;0.20;99.90
7194;DHT22;3638;48.820;9.244;2022-12-18T13:02:35;-0.10;99.90
7194;DHT22;3638;48.820;9.244;2022-12-18T13:05:18;-0.30;99.90
7194;DHT22;3638;48.820;9.244;2022-12-18T13:07:52;-0.30;99.90
7194;DHT22;3638;48.820;9.244;2022-12-18T13:10:26;-0.30;99.90
7194;DHT22;3638;48.820;9.244;2022-12-18T13:13:01;-0.30;99.90
7194;DHT22;3638;48.820;9.244;2022-12-18T13:15:33;-0.40;99.90
7194;DHT22;3638;48.820;9.244;2022-12-18T13:18:14;-0.50;99.90
7194;DHT22;3638;48.820;9.244;2022-12-18T13:20:47;-0.50;99.90
7194;DHT22;3638;48.820;9.244;2022-12-18T13:23:30;-0.40;99.90
7194;DHT22;3638;48.820;9.244;2022-12-18T13:26:00;-0.50;99.90
7194;DHT22;3638;48.820;9.244;2022-12-18T13:28:57;-0.50;99.90
7194;DHT22;3638;48.820;9.244;2022-12-18T13:34:28;-0.60;99.90
7194;DHT22;3638;48.820;9.244;2022-12-18T13:37:33;-0.50;99.90
7194;DHT22;3638;48.820;9.244;2022-12-18T13:39:59;-0.60;99.90
7194;DHT22;3638;48.820;9.244;2022-12-18T13:42:38;-0.50;99.90
7194;DHT22;3638;48.820;9.244;2022-12-18T13:45:41;0.70;99.90
7194;DHT22;3638;48.820;9.244;2022-12-18T13:48:21;-0.30;99.90
7194;DHT22;3638;48.820;9.244;2022-12-18T13:50:53;-0.40;99.90
7194;DHT22;3638;48.820;9.244;2022-12-18T13:53:26;1.40;99.90
7194;DHT22;3638;48.820;9.244;2022-12-18T13:55:55;1.40;99.90
7194;DHT22;3638;48.820;9.244;2022-12-18T13:58:23;1.30;99.90
7194;DHT22;3638;48.820;9.244;2022-12-18T14:00:50;0.90;99.90
7194;DHT22;3638;48.820;9.244;2022-12-18T14:03:20;0.70;99.90
7194;DHT22;3638;48.820;9.244;2022-12-18T14:05:54;0.30;99.90
7194;DHT22;3638;48.820;9.244;2022-12-18T14:08:23;-0.30;99.90
7194;DHT22;3638;48.820;9.244;2022-12-18T14:10:51;-0.30;99.90
7194;DHT22;3638;48.820;9.244;2022-12-18T14:13:23;-0.30;99.90
7194;DHT22;3638;48.820;9.244;2022-12-18T14:15:51;-0.40;99.90
7194;DHT22;3638;48.820;9.244;2022-12-18T14:18:23;-0.40;99.90
7194;DHT22;3638;48.820;9.244;2022-12-18T14:20:52;-0.60;99.90
7194;DHT22;3638;48.820;9.244;2022-12-18T14:23:28;-0.60;99.90
7194;DHT22;3638;48.820;9.244;2022-12-18T14:25:57;-0.60;99.90
7194;DHT22;3638;48.820;9.244;2022-12-18T14:28:26;-0.60;99.90
7194;DHT22;3638;48.820;9.244;2022-12-18T14:30:54;-0.60;99.90
7194;DHT22;3638;48.820;9.244;2022-12-18T14:33:23;-0.70;99.90
7194;DHT22;3638;48.820;9.244;2022-12-18T14:35:56;-0.80;99.90
7194;DHT22;3638;48.820;9.244;2022-12-18T14:38:30;-0.90;99.90
7194;DHT22;3638;48.820;9.244;2022-12-18T14:40:59;-0.90;99.90
7194;DHT22;3638;48.820;9.244;2022-12-18T14:43:30;-0.90;99.90
7194;DHT22;3638;48.820;9.244;2022-12-18T14:45:59;-1.00;99.90
7194;DHT22;3638;48.820;9.244;2022-12-18T14:48:36;-1.10;99.90
7194;DHT22;3638;48.820;9.244;2022-12-18T14:51:06;-1.20;99.90
7194;DHT22;3638;48.820;9.244;2022-12-18T14:53:44;-1.30;99.90
7194;DHT22;3638;48.820;9.244;2022-12-18T14:56:17;-1.30;99.90
7194;DHT22;3638;48.820;9.244;2022-12-18T14:58:52;-1.30;99.90
7194;DHT22;3638;48.820;9.244;2022-12-18T15:01:23;-1.30;99.90
7194;DHT22;3638;48.820;9.244;2022-12-18T15:03:53;-1.50;99.90
7194;DHT22;3638;48.820;9.244;2022-12-18T15:06:30;-1.40;99.90
7194;DHT22;3638;48.820;9.244;2022-12-18T15:09:00;-1.60;99.90
7194;DHT22;3638;48.820;9.244;2022-12-18T15:11:34;-1.60;99.90
7194;DHT22;3638;48.820;9.244;2022-12-18T15:14:31;-1.70;99.90
7194;DHT22;3638;48.820;9.244;2022-12-18T15:17:04;-1.70;99.90
7194;DHT22;3638;48.820;9.244;2022-12-18T15:19:37;-1.90;99.90
7194;DHT22;3638;48.820;9.244;2022-12-18T15:22:20;-2.40;99.90
7194;DHT22;3638;48.820;9.244;2022-12-18T15:24:49;-2.00;99.90
7194;DHT22;3638;48.820;9.244;2022-12-18T15:27:26;-2.00;99.90
7194;DHT22;3638;48.820;9.244;2022-12-18T15:30:19;-2.10;99.90
7194;DHT22;3638;48.820;9.244;2022-12-18T15:32:48;-2.10;99.90
7194;DHT22;3638;48.820;9.244;2022-12-18T15:35:18;-2.30;99.90
7194;DHT22;3638;48.820;9.244;2022-12-18T15:37:46;-2.30;99.90
7194;DHT22;3638;48.820;9.244;2022-12-18T15:40:15;-2.40;99.90
7194;DHT22;3638;48.820;9.244;2022-12-18T15:42:43;-2.50;99.90
7194;DHT22;3638;48.820;9.244;2022-12-18T15:45:29;-2.70;99.90
7194;DHT22;3638;48.820;9.244;2022-12-18T15:47:57;-2.70;99.90
7194;DHT22;3638;48.820;9.244;2022-12-18T15:50:24;-2.80;99.90
7194;DHT22;3638;48.820;9.244;2022-12-18T15:52:53;-3.50;99.90
7194;DHT22;3638;48.820;9.244;2022-12-18T15:55:22;-2.90;99.90
7194;DHT22;3638;48.820;9.244;2022-12-18T15:58:09;-2.90;99.90
7194;DHT22;3638;48.820;9.244;2022-12-18T16:00:38;-2.90;99.90
7194;DHT22;3638;48.820;9.244;2022-12-18T16:03:06;-2.90;99.90
7194;DHT22;3638;48.820;9.244;2022-12-18T16:05:33;-2.90;99.90
7194;DHT22;3638;48.820;9.244;2022-12-18T16:08:00;-2.90;99.90
7194;DHT22;3638;48.820;9.244;2022-12-18T16:10:27;-3.00;99.90
7194;DHT22;3638;48.820;9.244;2022-12-18T16:12:54;-3.10;99.90
7194;DHT22;3638;48.820;9.244;2022-12-18T16:15:21;-3.10;99.90
7194;DHT22;3638;48.820;9.244;2022-12-18T16:17:50;-3.00;99.90
7194;DHT22;3638;48.820;9.244;2022-12-18T16:20:19;-3.10;99.90
7194;DHT22;3638;48.820;9.244;2022-12-18T16:22:48;-3.00;99.90
7194;DHT22;3638;48.820;9.244;2022-12-18T16:25:18;-3.10;99.90
7194;DHT22;3638;48.820;9.244;2022-12-18T16:27:46;-3.20;99.90
7194;DHT22;3638;48.820;9.244;2022-12-18T16:30:14;-3.20;99.90
7194;DHT22;3638;48.820;9.244;2022-12-18T16:32:42;-3.30;99.90
7194;DHT22;3638;48.820;9.244;2022-12-18T16:35:12;-3.40;99.90
7194;DHT22;3638;48.820;9.244;2022-12-18T16:37:41;-3.40;99.90
7194;DHT22;3638;48.820;9.244;2022-12-18T16:40:10;-3.30;99.90
7194;DHT22;3638;48.820;9.244;2022-12-18T16:42:40;-3.20;99.90
7194;DHT22;3638;48.820;9.244;2022-12-18T16:45:09;-3.10;99.90
7194;DHT22;3638;48.820;9.244;2022-12-18T16:47:38;-3.20;99.90
7194;DHT22;3638;48.820;9.244;2022-12-18T16:50:07;-3.30;99.90
7194;DHT22;3638;48.820;9.244;2022-12-18T16:52:36;-3.30;99.90
7194;DHT22;3638;48.820;9.244;2022-12-18T16:55:04;-3.20;99.90